createdAt,value
2019-02-10T00:00:55.951Z,6.60
2019-02-10T00:05:59.599Z,6.60
2019-02-10T00:11:03.553Z,6.50
2019-02-10T00:16:12.626Z,6.60
2019-02-10T00:21:16.320Z,6.80
2019-02-10T00:26:20.019Z,6.70
2019-02-10T00:31:23.717Z,6.50
2019-02-10T00:36:32.833Z,6.50
2019-02-10T00:41:33.187Z,6.40
2019-02-10T00:46:37.111Z,6.20
2019-02-10T00:51:41.190Z,5.80
2019-02-10T00:56:44.895Z,5.70
2019-02-10T01:01:48.582Z,6.10
2019-02-10T01:06:52.539Z,6.30
2019-02-10T01:11:56.458Z,6.30
2019-02-10T01:17:00.142Z,6.40
2019-02-10T01:22:04.235Z,6.40
2019-02-10T01:27:08.130Z,6.30
2019-02-10T01:32:11.810Z,6.40
2019-02-10T01:37:15.485Z,6.40
2019-02-10T01:42:19.230Z,6.50
2019-02-10T01:47:23.204Z,6.40
2019-02-10T01:52:26.932Z,6.40
2019-02-10T01:57:30.719Z,6.30
2019-02-10T02:02:34.410Z,6.20
2019-02-10T02:07:38.137Z,6.20
2019-02-10T02:12:41.987Z,6.20
2019-02-10T02:17:45.994Z,6.10
2019-02-10T02:22:49.645Z,6.00
2019-02-10T02:27:53.304Z,5.90
2019-02-10T02:32:57.201Z,6.00
2019-02-10T02:38:00.864Z,5.80
2019-02-10T02:43:04.729Z,5.80
2019-02-10T02:48:08.475Z,5.70
2019-02-10T02:53:12.162Z,5.60
2019-02-10T02:58:15.868Z,5.30
2019-02-10T03:03:19.532Z,5.60
2019-02-10T03:08:23.204Z,5.80
2019-02-10T03:13:26.901Z,5.90
2019-02-10T03:18:30.577Z,5.90
2019-02-10T03:23:34.255Z,5.90
2019-02-10T03:28:38.251Z,5.80
2019-02-10T03:33:41.923Z,5.70
2019-02-10T03:38:46.073Z,5.60
2019-02-10T03:43:49.813Z,5.60
2019-02-10T03:48:53.544Z,5.50
2019-02-10T03:53:57.228Z,5.30
2019-02-10T03:59:00.924Z,5.50
2019-02-10T04:04:04.703Z,5.50
2019-02-10T04:09:08.456Z,5.60
2019-02-10T04:14:12.392Z,5.50
2019-02-10T04:19:16.080Z,5.60
2019-02-10T04:24:20.316Z,5.60
2019-02-10T04:29:24.027Z,5.70
2019-02-10T04:34:28.062Z,5.80
2019-02-10T04:39:31.759Z,5.80
2019-02-10T04:44:35.438Z,5.80
2019-02-10T04:49:39.099Z,5.80
2019-02-10T04:54:43.143Z,5.70
2019-02-10T04:59:46.812Z,5.80
2019-02-10T05:04:50.518Z,5.80
2019-02-10T05:09:54.500Z,5.80
2019-02-10T05:14:58.484Z,5.90
2019-02-10T05:20:02.267Z,5.90
2019-02-10T05:25:06.207Z,5.90
2019-02-10T05:30:09.905Z,6.00
2019-02-10T05:35:13.613Z,6.00
2019-02-10T05:40:17.287Z,6.10
2019-02-10T05:45:20.974Z,6.20
2019-02-10T05:50:24.669Z,6.30
2019-02-10T05:55:28.341Z,6.40
2019-02-10T06:00:32.149Z,6.40
2019-02-10T06:05:35.958Z,6.40
2019-02-10T06:10:39.677Z,6.40
2019-02-10T06:15:43.630Z,6.50
2019-02-10T06:20:47.566Z,6.40
2019-02-10T06:25:51.345Z,6.40
2019-02-10T06:30:55.381Z,6.40
2019-02-10T06:35:59.145Z,6.40
2019-02-10T06:41:02.939Z,6.50
2019-02-10T06:46:06.907Z,6.50
2019-02-10T06:51:10.703Z,6.50
2019-02-10T06:56:14.654Z,6.50
2019-02-10T07:01:23.772Z,6.60
2019-02-10T07:06:27.695Z,6.70
2019-02-10T07:11:31.707Z,6.70
2019-02-10T07:16:54.392Z,6.80
2019-02-10T07:21:58.080Z,6.90
2019-02-10T07:27:08.906Z,6.90
2019-02-10T07:32:21.409Z,7.00
2019-02-10T07:38:05.376Z,7.00
2019-02-10T07:43:28.260Z,7.10
2019-02-10T07:48:41.183Z,7.30
2019-02-10T07:54:00.259Z,7.40
2019-02-10T07:59:47.588Z,7.50
2019-02-10T08:05:19.409Z,7.50
2019-02-10T08:11:13.628Z,7.60
2019-02-10T08:16:51.754Z,7.70
2019-02-10T08:22:35.696Z,7.90
2019-02-10T08:28:05.319Z,8.00
2019-02-10T08:33:24.147Z,8.10
2019-02-10T08:39:09.621Z,8.20
2019-02-10T08:44:26.524Z,8.20
2019-02-10T08:50:00.589Z,8.30
2019-02-10T08:55:04.409Z,8.30
2019-02-10T09:00:09.598Z,8.40
2019-02-10T09:05:13.290Z,8.30
2019-02-10T09:10:16.996Z,8.30
2019-02-10T09:15:20.773Z,8.40
2019-02-10T09:20:25.067Z,8.50
2019-02-10T09:25:28.828Z,8.50
2019-02-10T09:30:32.665Z,8.60
2019-02-10T09:35:36.939Z,8.80
2019-02-10T09:40:40.664Z,8.80
2019-02-10T09:45:44.483Z,8.80
2019-02-10T09:50:48.187Z,8.90
2019-02-10T09:55:52.141Z,9.00
2019-02-10T10:00:56.129Z,9.10
2019-02-10T10:05:59.909Z,9.00
2019-02-10T10:11:03.702Z,9.00
2019-02-10T10:16:07.433Z,8.90
2019-02-10T10:21:11.516Z,9.00
2019-02-10T10:26:16.525Z,9.10
2019-02-10T10:31:20.553Z,9.10
2019-02-10T10:36:24.300Z,9.20
2019-02-10T10:41:28.037Z,9.20
2019-02-10T10:46:31.809Z,9.30
2019-02-10T10:51:35.507Z,9.40
2019-02-10T10:56:39.494Z,9.40
2019-02-10T11:07:46.356Z,9.50
2019-02-10T11:12:50.387Z,9.30
2019-02-10T11:17:54.129Z,9.40
2019-02-10T11:29:00.963Z,9.30
2019-02-10T11:34:04.823Z,9.30
2019-02-10T11:39:09.630Z,9.20
2019-02-10T11:44:13.697Z,9.20
2019-02-10T11:49:17.663Z,9.20
2019-02-10T11:54:21.345Z,9.20
2019-02-10T11:59:25.073Z,9.00
2019-02-10T12:04:28.820Z,9.00
2019-02-10T12:09:32.533Z,9.00
2019-02-10T12:14:36.263Z,9.00
2019-02-10T12:19:40.661Z,9.10
2019-02-10T12:24:44.705Z,9.10
2019-02-10T12:29:48.397Z,9.10
2019-02-10T12:34:52.311Z,9.20
2019-02-10T12:39:59.883Z,9.20
2019-02-10T12:45:01.731Z,9.30
2019-02-10T12:50:06.868Z,9.40
2019-02-10T12:55:11.151Z,9.40
2019-02-10T13:00:15.989Z,9.50
2019-02-10T13:05:19.768Z,9.50
2019-02-10T13:10:23.465Z,9.60
2019-02-10T13:15:28.887Z,9.60
2019-02-10T13:20:32.791Z,9.60
2019-02-10T13:25:36.543Z,9.60
2019-02-10T13:30:40.509Z,9.50
2019-02-10T13:35:44.195Z,9.50
2019-02-10T13:40:47.921Z,9.50
2019-02-10T13:45:51.930Z,9.60
2019-02-10T13:50:55.629Z,9.50
2019-02-10T13:55:59.394Z,9.70
2019-02-10T14:01:03.337Z,9.80
2019-02-10T14:06:08.001Z,9.70
2019-02-10T14:11:11.752Z,9.70
2019-02-10T14:16:15.575Z,9.70
2019-02-10T14:21:19.618Z,9.80
2019-02-10T14:26:23.451Z,9.90
2019-02-10T14:31:27.180Z,9.90
2019-02-10T14:36:31.008Z,10.00
2019-02-10T14:41:35.582Z,10.00
2019-02-10T14:46:40.352Z,10.00
2019-02-10T14:51:47.834Z,10.00
2019-02-10T14:56:51.543Z,9.90
2019-02-10T15:01:55.244Z,9.80
2019-02-10T15:06:59.017Z,9.90
2019-02-10T15:12:02.779Z,9.90
2019-02-10T15:17:06.799Z,9.90
2019-02-10T15:22:10.495Z,9.90
2019-02-10T15:27:14.533Z,9.90
2019-02-10T15:32:18.288Z,9.90
2019-02-10T15:37:21.991Z,10.50
2019-02-10T15:42:25.794Z,10.80
2019-02-10T15:47:29.509Z,11.10
2019-02-10T15:52:33.279Z,11.30
2019-02-10T15:57:37.065Z,11.20
2019-02-10T16:02:40.802Z,11.10
2019-02-10T16:07:44.490Z,11.10
2019-02-10T16:12:48.176Z,11.20
2019-02-10T16:17:51.877Z,11.40
2019-02-10T16:22:56.424Z,11.60
2019-02-10T16:28:00.147Z,11.50
2019-02-10T16:33:04.384Z,11.50
2019-02-10T16:38:08.479Z,11.60
2019-02-10T16:43:12.439Z,11.50
2019-02-10T16:48:16.168Z,11.50
2019-02-10T16:53:19.982Z,11.50
2019-02-10T16:58:23.731Z,11.40
2019-02-10T17:03:27.501Z,11.30
2019-02-10T17:08:31.241Z,11.40
2019-02-10T17:13:35.292Z,11.30
2019-02-10T17:18:41.360Z,11.20
2019-02-10T17:23:45.169Z,11.20
2019-02-10T17:28:49.196Z,11.20
2019-02-10T17:33:53.206Z,11.20
2019-02-10T17:38:56.882Z,11.30
2019-02-10T17:44:00.595Z,11.40
2019-02-10T17:49:04.284Z,11.40
2019-02-10T17:54:08.048Z,11.30
2019-02-10T17:59:11.828Z,11.30
2019-02-10T18:04:15.523Z,11.30
2019-02-10T18:09:19.705Z,11.30
2019-02-10T18:14:55.305Z,11.30
2019-02-10T18:20:27.621Z,11.30
2019-02-10T18:25:53.624Z,11.20
2019-02-10T18:31:04.349Z,11.10
2019-02-10T18:36:16.344Z,10.90
2019-02-10T18:41:24.958Z,10.80
2019-02-10T18:46:44.640Z,10.80
2019-02-10T18:52:04.932Z,10.60
2019-02-10T18:57:30.902Z,10.40
2019-02-10T19:02:50.153Z,10.40
2019-02-10T19:08:15.522Z,10.40
2019-02-10T19:13:50.216Z,10.40
2019-02-10T19:19:07.502Z,10.50
2019-02-10T19:24:21.277Z,10.50
2019-02-10T19:29:37.315Z,10.60
2019-02-10T19:34:59.845Z,10.60
2019-02-10T19:40:23.783Z,10.70
2019-02-10T19:45:49.556Z,10.60
2019-02-10T19:51:13.700Z,10.40
2019-02-10T19:56:36.523Z,10.30
2019-02-10T20:01:48.703Z,10.30
2019-02-10T20:07:04.811Z,10.30
2019-02-10T20:12:16.434Z,10.30
2019-02-10T20:17:45.141Z,10.40
2019-02-10T20:23:04.303Z,10.30
2019-02-10T20:28:22.976Z,10.30
2019-02-10T20:33:48.733Z,10.30
2019-02-10T20:39:10.906Z,10.30
2019-02-10T20:44:26.891Z,10.20
2019-02-10T20:49:45.691Z,10.10
2019-02-10T20:55:12.695Z,10.00
2019-02-10T21:00:30.667Z,9.80
2019-02-10T21:05:42.126Z,9.70
2019-02-10T21:11:09.410Z,9.60
2019-02-10T21:16:31.281Z,9.60
2019-02-10T21:21:54.205Z,9.60
2019-02-10T21:27:15.230Z,9.60
2019-02-10T21:32:36.945Z,9.60
2019-02-10T21:37:50.886Z,9.60
2019-02-10T21:43:18.440Z,9.50
2019-02-10T21:48:28.892Z,9.50
2019-02-10T21:53:32.604Z,9.30
2019-02-10T21:58:36.306Z,9.20
2019-02-10T22:03:40.411Z,9.20
2019-02-10T22:08:44.757Z,9.10
2019-02-10T22:13:48.449Z,9.10
2019-02-10T22:18:52.351Z,9.10
2019-02-10T22:23:56.142Z,9.00
2019-02-10T22:28:59.904Z,9.00
2019-02-10T22:34:03.723Z,8.90
2019-02-10T22:39:07.544Z,8.80
2019-02-10T22:44:11.192Z,8.80
2019-02-10T22:49:15.987Z,8.80
2019-02-10T22:54:20.072Z,8.80
2019-02-10T22:59:24.280Z,8.70
2019-02-10T23:04:28.086Z,8.60
2019-02-10T23:09:31.823Z,8.50
2019-02-10T23:14:36.016Z,8.50
2019-02-10T23:19:40.255Z,8.40
2019-02-10T23:24:44.074Z,8.30
2019-02-10T23:29:47.761Z,8.20
2019-02-10T23:34:51.517Z,8.20
2019-02-10T23:39:55.181Z,8.20
2019-02-10T23:44:58.888Z,8.20
2019-02-10T23:50:02.629Z,8.10
2019-02-10T23:55:06.539Z,8.10
